Time;durP1;ratioP1;P1;durP2;ratioP2;P2;SDS_P1;SDS_P2;PMS_P1;PMS_P2;Temp;Humidity;BMP_temperature;BMP_pressure;BME280_temperature;BME280_humidity;BME280_pressure;Samples;Min_cycle;Max_cycle;Signal;HPM_P1;HPM_P2
2022/01/19 00:03:07;;;;;;;106.30;44.72;;;5.60;99.90;;;;;;5011292;28;20038;-82
2022/01/19 00:05:55;;;;;;;232.05;87.18;;;5.60;99.90;;;;;;5009338;28;20384;-82
2022/01/19 00:08:23;;;;;;;107.60;67.25;;;5.50;99.90;;;;;;5010134;28;20025;-81
2022/01/19 00:11:00;;;;;;;34.42;23.60;;;5.50;99.90;;;;;;4993642;28;20107;-81
2022/01/19 00:13:29;;;;;;;16.20;9.18;;;5.40;99.90;;;;;;5010048;28;20392;-81
2022/01/19 00:15:56;;;;;;;14.32;9.52;;;5.30;99.90;;;;;;4992562;28;20033;-81
2022/01/19 00:18:48;;;;;;;16.75;11.30;;;5.20;99.90;;;;;;5009432;28;20480;-81
2022/01/19 00:21:32;;;;;;;8.82;6.65;;;5.00;99.90;;;;;;5008794;28;20405;-81
2022/01/19 00:24:23;;;;;;;10.32;6.60;;;4.90;99.90;;;;;;4992659;28;20139;-82
2022/01/19 00:27:13;;;;;;;;;;;;;;;;;;;;;
2022/01/19 00:29:44;;;;;;;11.88;5.50;;;4.80;99.90;;;;;;4999622;28;20053;-81
2022/01/19 00:32:29;;;;;;;;;;;;;;;;;;;;;
2022/01/19 00:35:39;;;;;;;9.82;5.80;;;4.60;99.90;;;;;;5011483;28;20026;-80
2022/01/19 00:38:15;;;;;;;10.82;6.72;;;4.60;99.90;;;;;;4942521;28;20042;-80
2022/01/19 00:47:25;;;;;;;10.20;5.35;;;4.30;99.90;;;;;;4915430;29;20037;-80
2022/01/19 00:50:34;;;;;;;11.13;5.28;;;4.30;99.90;;;;;;4938410;28;20051;-81
2022/01/19 00:53:00;;;;;;;7.45;5.10;;;4.20;99.90;;;;;;4889265;29;20152;-81
2022/01/19 01:05:47;;;;;;;12.18;5.10;;;4.40;99.90;;;;;;4893228;29;20495;-81
2022/01/19 01:09:04;;;;;;;7.25;5.22;;;4.50;99.90;;;;;;4881716;29;20080;-81
2022/01/19 01:11:35;;;;;;;9.23;4.90;;;4.50;99.90;;;;;;4893220;29;20039;-81
2022/01/19 01:24:56;;;;;;;6.82;5.18;;;4.60;99.90;;;;;;4767874;30;20059;-80
2022/01/19 01:28:21;;;;;;;;;;;;;;;;;;;;;
2022/01/19 01:38:25;;;;;;;;;;;;;;;;;;;;;
2022/01/19 01:40:54;;;;;;;7.32;4.95;;;4.40;99.90;;;;;;4790044;29;20059;-79
2022/01/19 02:22:29;;;;;;;7.90;5.53;;;4.60;99.90;;;;;;4892550;29;20064;-79
2022/01/19 02:25:03;;;;;;;10.25;5.82;;;4.60;99.90;;;;;;4895488;29;20045;-80
2022/01/19 02:40:50;;;;;;;;;;;;;;;;;;;;;
2022/01/19 02:50:30;;;;;;;10.98;5.25;;;4.30;99.90;;;;;;4941691;28;20091;-79
2022/01/19 02:53:21;;;;;;;;;;;;;;;;;;;;;
2022/01/19 02:56:06;;;;;;;10.65;5.18;;;4.20;99.90;;;;;;4948632;28;20051;-79
2022/01/19 03:12:24;;;;;;;9.50;5.47;;;4.40;99.90;;;;;;4906008;29;20043;-79
2022/01/19 03:15:38;;;;;;;12.48;6.13;;;4.40;99.90;;;;;;4927287;29;20032;-79
2022/01/19 03:32:25;;;;;;;;;;;;;;;;;;;;;
2022/01/19 03:51:58;;;;;;;12.95;5.85;;;4.30;99.90;;;;;;4847562;29;20639;-79
2022/01/19 03:55:14;;;;;;;;;;;;;;;;;;;;;
2022/01/19 03:57:54;;;;;;;11.50;7.38;;;4.20;99.90;;;;;;4999988;28;20037;-79
2022/01/19 04:07:49;;;;;;;7.80;6.38;;;4.20;99.90;;;;;;4903223;29;20060;-79
2022/01/19 04:10:52;;;;;;;9.98;6.07;;;4.10;99.90;;;;;;4885354;29;20503;-79
2022/01/19 04:20:54;;;;;;;11.75;6.53;;;3.90;99.90;;;;;;5013268;28;20102;-79
2022/01/19 04:27:43;;;;;;;11.32;6.68;;;3.80;99.90;;;;;;4964772;28;20050;-79
2022/01/19 05:07:06;;;;;;;10.77;7.00;;;3.90;99.90;;;;;;4956122;28;20050;-79
2022/01/19 05:10:00;;;;;;;11.82;6.72;;;3.90;99.90;;;;;;5011087;28;20033;-79
2022/01/19 05:15:26;;;;;;;12.85;8.00;;;3.80;99.90;;;;;;5019846;28;20044;-79
2022/01/19 05:18:29;;;;;;;10.00;7.53;;;3.80;99.90;;;;;;5004981;28;20069;-79
2022/01/19 05:21:08;;;;;;;9.05;7.30;;;3.80;99.90;;;;;;5017120;28;20028;-79
2022/01/19 05:23:36;;;;;;;13.32;7.40;;;3.70;99.90;;;;;;5020399;28;20092;-79
2022/01/19 05:26:08;;;;;;;12.38;7.45;;;3.60;99.90;;;;;;5025478;28;20426;-79
2022/01/19 05:28:58;;;;;;;13.90;7.47;;;3.70;99.90;;;;;;5022978;28;20034;-79
2022/01/19 05:34:46;;;;;;;10.38;6.35;;;3.70;99.90;;;;;;4995593;28;20068;-79
2022/01/19 05:37:12;;;;;;;11.20;7.53;;;3.70;99.90;;;;;;5015710;28;20048;-79
2022/01/19 05:39:53;;;;;;;13.00;8.07;;;3.70;99.90;;;;;;5016777;28;20021;-79
2022/01/19 05:45:39;;;;;;;12.15;7.45;;;3.70;99.90;;;;;;5009168;28;20117;-79
2022/01/19 05:48:17;;;;;;;18.52;8.35;;;3.60;99.90;;;;;;5022076;28;20025;-79
2022/01/19 05:53:46;;;;;;;10.15;7.78;;;3.50;99.90;;;;;;5027682;28;20090;-79
2022/01/19 05:56:11;;;;;;;12.07;7.43;;;3.50;99.90;;;;;;5029675;28;20112;-79
2022/01/19 05:58:43;;;;;;;15.77;7.25;;;3.50;99.90;;;;;;5012530;28;20055;-79
2022/01/19 06:01:09;;;;;;;16.75;8.55;;;3.40;99.90;;;;;;5029950;28;20033;-79
2022/01/19 06:03:40;;;;;;;14.85;8.23;;;3.40;99.90;;;;;;5025931;28;20034;-78
2022/01/19 06:06:32;;;;;;;12.30;8.15;;;3.40;99.90;;;;;;5019279;28;20026;-79
2022/01/19 06:09:35;;;;;;;14.77;9.32;;;3.40;99.90;;;;;;5026767;28;20056;-79
2022/01/19 06:12:06;;;;;;;;;;;3.40;99.90;;;;;;5022375;28;20025;-79
2022/01/19 06:14:37;;;;;;;27.38;19.00;;;3.40;99.90;;;;;;5027503;28;19948;-79
2022/01/19 06:17:05;;;;;;;20.88;13.32;;;3.30;99.90;;;;;;5034713;28;20040;-79
2022/01/19 06:19:35;;;;;;;21.40;16.10;;;3.40;99.90;;;;;;5026492;28;20129;-79
2022/01/19 06:22:06;;;;;;;18.83;11.98;;;3.40;99.90;;;;;;5018556;28;20029;-79
2022/01/19 06:24:59;;;;;;;22.38;15.90;;;3.40;99.90;;;;;;5018754;28;20080;-79
2022/01/19 06:27:30;;;;;;;22.40;14.10;;;3.40;99.90;;;;;;5013176;28;20129;-79
2022/01/19 06:30:21;;;;;;;33.58;25.75;;;3.40;99.90;;;;;;5012965;28;20616;-78
2022/01/19 06:32:47;;;;;;;16.95;10.95;;;3.40;99.90;;;;;;5018254;28;20132;-79
2022/01/19 06:35:13;;;;;;;15.45;9.45;;;3.50;99.90;;;;;;5023850;28;20108;-78
2022/01/19 06:37:57;;;;;;;17.35;13.48;;;3.50;99.90;;;;;;5025930;28;20036;-79
2022/01/19 06:40:27;;;;;;;17.42;12.23;;;3.50;99.90;;;;;;5032055;28;20068;-79
2022/01/19 06:42:54;;;;;;;28.92;20.85;;;3.50;99.90;;;;;;5023113;28;20017;-79
2022/01/19 06:45:23;;;;;;;25.08;16.40;;;3.50;99.90;;;;;;5025776;28;20039;-79
2022/01/19 06:47:49;;;;;;;22.00;13.82;;;3.60;99.90;;;;;;5026532;28;20021;-79
2022/01/19 06:50:19;;;;;;;19.17;12.88;;;3.70;99.90;;;;;;5027939;28;20026;-79
2022/01/19 06:52:46;;;;;;;20.27;10.60;;;3.90;99.90;;;;;;5022235;28;20553;-83
2022/01/19 06:55:34;;;;;;;;;;;;;;;;;;;;;
2022/01/19 06:58:00;;;;;;;16.15;10.23;;;4.20;99.90;;;;;;5026638;28;20033;-87
2022/01/19 07:00:29;;;;;;;15.68;10.10;;;4.40;99.90;;;;;;5006287;28;20086;-86
2022/01/19 07:02:55;;;;;;;14.95;9.90;;;4.60;99.90;;;;;;5007427;28;20080;-77
2022/01/19 07:05:33;;;;;;;13.32;9.07;;;4.70;99.90;;;;;;5031522;28;20538;-79
2022/01/19 07:08:25;;;;;;;16.75;9.40;;;4.90;99.90;;;;;;5023243;28;20030;-80
2022/01/19 07:10:51;;;;;;;18.70;10.77;;;5.10;99.90;;;;;;4992986;28;20443;-80
2022/01/19 07:13:31;;;;;;;15.90;9.80;;;5.10;99.90;;;;;;5020731;28;20029;-80
2022/01/19 07:16:00;;;;;;;17.50;10.63;;;5.20;99.90;;;;;;5027694;28;20085;-79
2022/01/19 07:18:29;;;;;;;17.40;10.60;;;5.20;99.90;;;;;;5021736;28;20021;-79
2022/01/19 07:21:00;;;;;;;15.65;10.30;;;5.30;99.90;;;;;;5026331;28;20021;-79
2022/01/19 07:23:27;;;;;;;13.20;9.65;;;5.30;99.90;;;;;;5021992;28;20108;-79
2022/01/19 07:25:55;;;;;;;14.82;9.57;;;5.30;99.90;;;;;;5026088;28;20030;-79
2022/01/19 07:28:21;;;;;;;15.45;9.48;;;5.30;99.90;;;;;;5020723;28;20034;-79
2022/01/19 07:30:50;;;;;;;17.10;8.73;;;5.30;99.90;;;;;;5019112;28;20464;-79
2022/01/19 07:33:19;;;;;;;21.48;9.52;;;5.30;99.90;;;;;;5020753;28;20085;-88
2022/01/19 07:35:46;;;;;;;17.75;11.30;;;5.30;99.90;;;;;;5011309;28;20109;-80
2022/01/19 07:38:11;;;;;;;14.85;11.30;;;5.30;99.90;;;;;;5023645;28;20232;-79
2022/01/19 07:40:38;;;;;;;17.30;8.70;;;5.30;99.90;;;;;;5002602;28;20472;-79
2022/01/19 07:43:04;;;;;;;15.68;8.10;;;5.30;99.90;;;;;;5020021;28;20033;-79
2022/01/19 07:45:47;;;;;;;14.77;8.30;;;5.40;99.90;;;;;;5023444;28;20021;-80
2022/01/19 07:48:13;;;;;;;15.27;7.88;;;5.40;99.90;;;;;;5005032;28;20582;-79
2022/01/19 07:50:44;;;;;;;18.83;8.35;;;5.50;99.90;;;;;;5011012;28;20088;-80
2022/01/19 07:53:11;;;;;;;19.93;8.83;;;5.50;99.90;;;;;;5001714;28;20128;-80
2022/01/19 07:56:01;;;;;;;13.98;7.50;;;5.50;99.90;;;;;;4994548;28;20041;-79
2022/01/19 07:58:27;;;;;;;15.20;8.65;;;5.50;99.90;;;;;;5022517;28;20402;-80
2022/01/19 08:00:53;;;;;;;17.63;8.10;;;5.50;99.90;;;;;;5017784;28;20046;-79
2022/01/19 08:03:24;;;;;;;17.02;8.68;;;5.50;99.90;;;;;;5019858;28;20025;-79
2022/01/19 08:09:15;;;;;;;22.52;8.88;;;5.60;99.90;;;;;;4973845;28;20044;-79
2022/01/19 08:11:41;;;;;;;33.83;8.77;;;5.70;99.90;;;;;;5027385;28;20018;-79
2022/01/19 08:14:06;;;;;;;29.15;9.30;;;5.90;99.90;;;;;;5017126;28;20121;-80
2022/01/19 08:16:32;;;;;;;27.42;8.68;;;6.10;99.90;;;;;;5028960;28;20080;-79
2022/01/19 08:18:58;;;;;;;21.50;8.45;;;6.30;99.90;;;;;;5018329;28;20041;-80
2022/01/19 08:21:24;;;;;;;23.15;8.35;;;6.50;99.90;;;;;;5027549;28;20025;-80
2022/01/19 08:23:50;;;;;;;27.85;8.77;;;6.80;99.90;;;;;;4998068;28;20030;-80
2022/01/19 08:26:16;;;;;;;33.75;10.55;;;7.00;99.90;;;;;;5026082;28;20034;-80
2022/01/19 08:28:42;;;;;;;28.25;10.38;;;7.20;99.90;;;;;;5019947;28;20089;-80
2022/01/19 08:31:08;;;;;;;25.02;9.55;;;7.40;99.90;;;;;;5026105;28;20029;-79
2022/01/19 08:33:34;;;;;;;23.40;9.30;;;7.50;99.90;;;;;;5022471;28;20036;-80
2022/01/19 08:35:59;;;;;;;33.00;8.18;;;7.70;99.90;;;;;;5017026;28;20014;-80
2022/01/19 08:38:25;;;;;;;30.95;8.75;;;7.90;99.90;;;;;;5018983;28;20386;-79
2022/01/19 08:40:51;;;;;;;35.97;8.32;;;8.00;99.90;;;;;;5024818;28;20034;-80
2022/01/19 08:43:17;;;;;;;19.25;8.80;;;8.10;99.90;;;;;;5019452;28;20033;-79
2022/01/19 08:45:43;;;;;;;20.13;11.25;;;8.20;99.90;;;;;;5024208;28;20112;-79
2022/01/19 08:48:12;;;;;;;19.80;8.48;;;8.40;99.90;;;;;;5022294;28;20427;-80
2022/01/19 08:50:40;;;;;;;16.02;8.98;;;8.60;99.90;;;;;;5023420;28;20029;-80
2022/01/19 08:53:09;;;;;;;12.25;7.68;;;8.70;99.90;;;;;;5002301;28;20088;-79
2022/01/19 08:55:38;;;;;;;14.50;7.45;;;8.80;99.90;;;;;;5022686;28;20030;-79
2022/01/19 08:58:09;;;;;;;16.25;8.57;;;9.00;99.90;;;;;;5002549;28;20040;-79
2022/01/19 09:00:44;;;;;;;15.70;8.45;;;9.20;99.90;;;;;;5001771;28;20088;-79
2022/01/19 09:03:11;;;;;;;17.60;8.13;;;9.30;99.90;;;;;;5019400;28;20033;-79
2022/01/19 09:05:40;;;;;;;18.27;10.07;;;9.40;99.90;;;;;;5005497;28;20076;-79
2022/01/19 09:08:06;;;;;;;21.27;10.25;;;9.40;99.90;;;;;;5020381;28;20056;-79
2022/01/19 09:10:32;;;;;;;18.35;10.73;;;9.40;99.90;;;;;;5017730;28;20449;-80
2022/01/19 09:12:57;;;;;;;18.35;9.55;;;9.30;99.90;;;;;;5033105;28;20436;-79
2022/01/19 09:15:23;;;;;;;19.42;9.30;;;9.30;99.90;;;;;;5031067;28;20037;-80
2022/01/19 09:17:50;;;;;;;15.77;9.77;;;9.30;99.90;;;;;;5023578;28;20080;-80
2022/01/19 09:20:19;;;;;;;21.95;10.73;;;9.20;99.90;;;;;;5002102;28;20081;-80
2022/01/19 09:22:45;;;;;;;22.85;10.93;;;9.20;99.90;;;;;;5000204;28;20033;-79
2022/01/19 09:25:12;;;;;;;17.83;11.60;;;9.30;99.90;;;;;;5022240;28;20018;-79
2022/01/19 09:27:38;;;;;;;19.17;13.25;;;9.40;99.90;;;;;;5022638;28;20513;-80
2022/01/19 09:30:10;;;;;;;24.52;12.45;;;9.40;99.90;;;;;;5001951;28;20037;-79
2022/01/19 09:32:35;;;;;;;26.40;13.93;;;9.30;99.90;;;;;;5026422;28;20054;-79
2022/01/19 09:35:07;;;;;;;26.15;13.45;;;9.20;99.90;;;;;;5023156;28;20060;-80
2022/01/19 09:37:34;;;;;;;28.90;14.53;;;9.00;99.90;;;;;;5025524;28;20088;-80
2022/01/19 09:40:00;;;;;;;22.98;13.95;;;8.70;99.90;;;;;;5023057;28;20025;-79
2022/01/19 09:42:26;;;;;;;22.17;14.40;;;8.60;99.90;;;;;;5026216;28;20032;-80
2022/01/19 09:44:52;;;;;;;21.80;13.68;;;8.50;99.90;;;;;;5026400;28;20063;-80
2022/01/19 09:47:19;;;;;;;23.23;14.07;;;8.40;99.90;;;;;;5000940;28;20112;-80
2022/01/19 09:49:45;;;;;;;18.92;11.85;;;8.40;99.90;;;;;;5025958;28;20045;-80
2022/01/19 09:52:10;;;;;;;16.70;10.35;;;8.40;99.90;;;;;;5018455;28;20049;-80
2022/01/19 09:54:36;;;;;;;14.30;9.45;;;8.50;99.90;;;;;;5030539;28;20048;-80
2022/01/19 09:57:03;;;;;;;16.40;10.07;;;8.70;99.90;;;;;;5010476;28;20124;-80
2022/01/19 09:59:29;;;;;;;18.95;9.77;;;8.90;99.90;;;;;;5020418;28;20045;-80
2022/01/19 10:01:56;;;;;;;8.85;6.43;;;9.30;99.90;;;;;;5028081;28;20057;-80
2022/01/19 10:04:27;;;;;;;15.50;8.43;;;9.70;99.90;;;;;;5022649;28;20510;-79
2022/01/19 10:07:13;;;;;;;15.40;10.15;;;10.20;99.90;;;;;;5010339;28;20026;-80
2022/01/19 10:09:51;;;;;;;12.85;9.30;;;10.80;99.90;;;;;;5008486;28;20555;-80
2022/01/19 10:18:18;;;;;;;8.95;5.70;;;11.60;99.90;;;;;;5023051;28;20084;-80
2022/01/19 10:20:46;;;;;;;11.88;6.30;;;11.70;99.90;;;;;;5026518;28;20029;-80
2022/01/19 10:23:35;;;;;;;7.53;5.85;;;11.30;99.90;;;;;;5021141;28;20076;-80
2022/01/19 10:26:02;;;;;;;11.07;6.13;;;11.10;99.90;;;;;;5027596;28;20238;-80
2022/01/19 10:28:28;;;;;;;8.25;5.75;;;10.80;99.90;;;;;;5021290;28;20026;-80
2022/01/19 10:30:54;;;;;;;8.50;5.75;;;10.50;99.90;;;;;;5027487;28;20108;-80
2022/01/19 10:33:20;;;;;;;15.77;8.80;;;10.50;99.90;;;;;;5003292;28;20112;-80
2022/01/19 10:35:49;;;;;;;12.52;7.95;;;10.60;99.90;;;;;;5012635;28;20053;-84
2022/01/19 10:38:17;;;;;;;12.40;7.97;;;10.80;99.90;;;;;;5008545;28;20087;-86
2022/01/19 10:41:02;;;;;;;16.00;9.20;;;11.00;99.90;;;;;;5025305;28;20037;-80
2022/01/19 10:43:32;;;;;;;19.42;9.10;;;11.30;99.90;;;;;;5025138;28;20022;-80
2022/01/19 10:46:22;;;;;;;18.95;10.73;;;11.30;99.90;;;;;;5028690;28;20116;-82
2022/01/19 10:48:55;;;;;;;17.33;9.93;;;11.00;99.90;;;;;;5019039;28;20034;-81
2022/01/19 10:51:21;;;;;;;;;;;10.30;99.90;;;;;;5031881;28;20042;-81
2022/01/19 10:54:11;;;;;;;25.80;13.60;;;9.90;99.90;;;;;;5022101;28;20012;-80
2022/01/19 10:56:38;;;;;;;27.00;13.20;;;9.70;99.90;;;;;;5029243;28;20018;-79
2022/01/19 10:59:13;;;;;;;17.63;10.38;;;9.60;99.90;;;;;;5025111;28;20450;-82
2022/01/19 11:01:45;;;;;;;25.35;11.38;;;9.70;99.90;;;;;;4995342;28;20038;-79
2022/01/19 11:04:33;;;;;;;10.52;7.70;;;9.80;99.90;;;;;;5001388;28;20015;-79
2022/01/19 11:07:08;;;;;;;16.17;8.63;;;10.00;99.90;;;;;;4989273;28;20448;-82
2022/01/19 11:09:45;;;;;;;12.50;8.00;;;10.20;99.90;;;;;;4983707;28;20040;-79
2022/01/19 11:12:15;;;;;;;14.73;8.73;;;10.30;99.90;;;;;;5005129;28;20031;-81
2022/01/19 11:14:42;;;;;;;22.30;10.45;;;10.30;99.90;;;;;;4999165;28;20038;-83
2022/01/19 11:17:09;;;;;;;16.35;9.88;;;10.30;99.90;;;;;;5007945;28;20022;-83
2022/01/19 11:19:45;;;;;;;15.95;10.30;;;10.30;99.90;;;;;;5003075;28;20037;-83
2022/01/19 11:22:49;;;;;;;14.98;10.23;;;10.30;99.90;;;;;;5009187;28;20095;-82
2022/01/19 11:25:36;;;;;;;16.75;10.45;;;10.30;99.90;;;;;;5004110;28;20022;-83
2022/01/19 11:28:02;;;;;;;16.17;10.55;;;10.30;99.90;;;;;;5004762;28;20402;-82
2022/01/19 11:30:33;;;;;;;19.15;11.25;;;10.30;99.90;;;;;;5003922;28;20033;-82
2022/01/19 11:33:25;;;;;;;12.77;9.50;;;10.40;99.90;;;;;;4992693;28;20022;-83
2022/01/19 11:35:54;;;;;;;20.05;11.30;;;10.10;99.90;;;;;;5011731;28;20033;-83
2022/01/19 11:38:32;;;;;;;20.10;12.23;;;10.10;99.90;;;;;;5004266;28;20485;-83
2022/01/19 11:41:19;;;;;;;20.27;11.45;;;10.00;99.90;;;;;;5012196;28;20611;-83
2022/01/19 11:43:52;;;;;;;15.15;10.32;;;10.10;99.90;;;;;;5002212;28;20481;-83
2022/01/19 11:46:27;;;;;;;26.88;12.75;;;10.20;99.90;;;;;;5007749;28;20010;-83
2022/01/19 11:48:55;;;;;;;21.17;10.65;;;10.30;99.90;;;;;;5009688;28;20517;-82
2022/01/19 11:51:44;;;;;;;14.07;8.93;;;10.30;99.90;;;;;;5010438;28;20054;-83
2022/01/19 11:54:27;;;;;;;14.77;9.07;;;10.30;99.90;;;;;;5007892;28;20108;-83
2022/01/19 11:56:58;;;;;;;10.88;7.85;;;10.30;99.90;;;;;;5006506;28;20033;-82
2022/01/19 11:59:26;;;;;;;13.65;8.32;;;10.30;99.90;;;;;;5004595;28;20084;-83
2022/01/19 12:02:21;;;;;;;16.98;8.02;;;10.20;99.90;;;;;;4987530;28;20058;-82
2022/01/19 12:04:54;;;;;;;10.48;7.72;;;10.10;99.90;;;;;;5010744;28;20026;-83
2022/01/19 12:07:52;;;;;;;10.55;7.13;;;10.00;99.90;;;;;;4991025;28;20038;-82
2022/01/19 12:10:22;;;;;;;9.98;7.05;;;10.10;99.90;;;;;;5007954;28;20065;-83
2022/01/19 12:13:42;;;;;;;8.38;5.35;;;10.10;99.90;;;;;;4991715;28;20718;-84
2022/01/19 12:19:07;;;;;;;12.70;6.32;;;10.10;99.90;;;;;;5007807;28;20026;-83
2022/01/19 12:22:05;;;;;;;13.63;8.80;;;10.10;99.90;;;;;;5007791;28;20062;-83
2022/01/19 12:24:44;;;;;;;13.95;7.72;;;10.10;99.90;;;;;;5002802;28;20025;-83
2022/01/19 12:27:13;;;;;;;11.25;7.03;;;10.10;99.90;;;;;;4988558;28;20112;-82
2022/01/19 12:29:40;;;;;;;10.98;6.22;;;10.10;99.90;;;;;;5006325;28;20033;-82
2022/01/19 12:32:08;;;;;;;10.70;6.22;;;10.10;99.90;;;;;;5024000;28;20017;-83
2022/01/19 12:34:48;;;;;;;12.73;6.47;;;10.30;99.90;;;;;;5022068;28;20127;-82
2022/01/19 12:37:33;;;;;;;12.20;6.13;;;11.00;99.90;;;;;;5007749;28;20108;-83
2022/01/19 12:40:17;;;;;;;7.80;6.00;;;12.40;99.90;;;;;;5011550;28;20055;-83
2022/01/19 12:42:56;;;;;;;9.52;5.68;;;15.00;99.90;;;;;;4989271;28;20049;-84
2022/01/19 12:45:30;;;;;;;8.02;5.47;;;16.30;99.90;;;;;;5001568;28;20054;-84
2022/01/19 12:48:07;;;;;;;7.47;5.88;;;17.20;93.70;;;;;;5010061;28;20091;-83
2022/01/19 12:50:32;;;;;;;10.75;5.82;;;17.10;93.00;;;;;;4985003;28;20271;-83
2022/01/19 12:53:04;;;;;;;8.80;6.10;;;17.20;91.00;;;;;;5005626;28;20510;-84
2022/01/19 12:55:37;;;;;;;9.10;6.20;;;17.90;86.30;;;;;;5011855;28;20083;-84
2022/01/19 12:58:21;;;;;;;9.43;5.95;;;18.10;82.90;;;;;;5003034;28;21104;-84
2022/01/19 13:00:56;;;;;;;9.02;6.55;;;18.30;81.50;;;;;;5010652;28;20034;-91
2022/01/19 13:03:25;;;;;;;11.50;6.72;;;18.30;80.80;;;;;;4993243;28;20125;-83
2022/01/19 13:05:56;;;;;;;11.02;7.53;;;18.20;81.10;;;;;;5009108;28;20024;-85
2022/01/19 13:08:25;;;;;;;8.63;5.85;;;18.90;78.40;;;;;;4989140;28;20030;-86
2022/01/19 13:10:54;;;;;;;11.95;6.70;;;19.20;77.00;;;;;;4993378;28;20030;-86
2022/01/19 13:13:28;;;;;;;8.02;6.15;;;19.80;76.00;;;;;;5009886;28;20130;-84
2022/01/19 13:16:02;;;;;;;7.85;5.68;;;20.00;73.40;;;;;;4997355;28;20022;-84
2022/01/19 13:18:29;;;;;;;10.15;6.18;;;19.50;74.60;;;;;;5011378;28;20060;-82
2022/01/19 13:20:57;;;;;;;9.77;6.20;;;19.20;76.00;;;;;;5014400;28;20033;-84
2022/01/19 13:23:24;;;;;;;9.93;6.03;;;18.30;81.90;;;;;;5004357;28;20029;-85
2022/01/19 13:25:58;;;;;;;10.85;6.70;;;18.00;85.90;;;;;;5013636;28;20076;-84
2022/01/19 13:28:30;;;;;;;10.98;5.75;;;18.00;85.00;;;;;;4987461;28;20499;-84
2022/01/19 13:31:08;;;;;;;11.43;5.25;;;18.00;90.10;;;;;;4996739;28;20734;-82
2022/01/19 13:33:34;;;;;;;13.93;8.15;;;18.10;90.40;;;;;;4984647;28;20026;-82
2022/01/19 13:36:04;;;;;;;8.77;6.57;;;17.80;87.90;;;;;;4998352;28;20034;-84
2022/01/19 13:38:30;;;;;;;10.13;5.53;;;17.90;86.80;;;;;;5002018;28;20027;-86
2022/01/19 13:41:05;;;;;;;10.65;5.50;;;18.60;89.00;;;;;;4992212;28;20030;-88
2022/01/19 13:43:38;;;;;;;13.68;5.70;;;19.20;85.30;;;;;;4986069;28;20026;-87
2022/01/19 13:46:18;;;;;;;6.85;4.22;;;19.80;82.40;;;;;;4992751;28;20022;-84
2022/01/19 13:48:47;;;;;;;11.40;4.70;;;20.60;82.90;;;;;;4993860;28;20441;-84
2022/01/19 13:51:14;;;;;;;5.72;3.70;;;20.80;80.40;;;;;;5012909;28;20480;-85
2022/01/19 13:53:49;;;;;;;9.20;5.25;;;20.50;80.80;;;;;;5008280;28;20635;-83
2022/01/19 13:56:33;;;;;;;14.45;4.68;;;20.30;80.50;;;;;;5013572;28;20026;-85
2022/01/19 13:59:14;;;;;;;8.63;4.95;;;19.30;83.40;;;;;;5014043;28;20611;-85
2022/01/19 14:01:51;;;;;;;8.95;4.40;;;19.60;83.20;;;;;;4994825;28;20406;-84
2022/01/19 14:04:17;;;;;;;13.68;5.00;;;20.00;81.60;;;;;;5012269;28;20025;-84
2022/01/19 14:06:50;;;;;;;14.15;5.43;;;19.80;80.90;;;;;;5011632;28;20026;-84
2022/01/19 14:09:29;;;;;;;12.68;5.88;;;19.90;80.10;;;;;;5009586;28;20041;-85
2022/01/19 14:12:06;;;;;;;10.25;5.53;;;20.10;79.80;;;;;;5009730;28;20022;-86
2022/01/19 14:14:48;;;;;;;9.05;5.75;;;19.70;79.90;;;;;;5003040;28;20056;-84
2022/01/19 14:17:25;;;;;;;8.80;6.30;;;19.70;78.60;;;;;;5009997;28;20026;-84
2022/01/19 14:19:51;;;;;;;6.88;4.85;;;20.20;77.00;;;;;;5009328;28;20033;-82
2022/01/19 14:22:20;;;;;;;12.70;6.07;;;20.10;75.80;;;;;;5011007;28;20018;-80
2022/01/19 14:25:06;;;;;;;15.90;8.75;;;20.30;75.50;;;;;;5011202;28;20652;-84
2022/01/19 14:27:57;;;;;;;12.35;6.13;;;20.30;74.90;;;;;;5005186;28;20030;-85
2022/01/19 14:30:28;;;;;;;9.27;5.82;;;19.30;76.40;;;;;;5012220;28;20439;-84
2022/01/19 14:33:09;;;;;;;11.23;5.60;;;18.10;79.80;;;;;;5006764;28;20029;-81
2022/01/19 14:35:35;;;;;;;12.50;5.90;;;16.50;85.40;;;;;;5005612;28;20026;-81
2022/01/19 14:38:27;;;;;;;11.50;5.65;;;15.20;90.60;;;;;;5002653;28;20030;-82
2022/01/19 14:41:01;;;;;;;9.15;5.30;;;14.80;92.80;;;;;;5007090;28;20077;-83
2022/01/19 14:43:39;;;;;;;11.85;5.53;;;15.00;93.70;;;;;;5005541;28;20555;-84
2022/01/19 14:46:10;;;;;;;13.70;5.53;;;14.40;95.50;;;;;;5008913;28;20030;-84
2022/01/19 14:48:45;;;;;;;11.18;5.20;;;13.60;98.50;;;;;;5008399;28;20026;-86
2022/01/19 14:51:25;;;;;;;13.25;4.43;;;13.30;99.90;;;;;;5012199;28;20508;-85
2022/01/19 14:53:54;;;;;;;11.48;4.63;;;13.40;99.90;;;;;;4991404;28;20065;-85
2022/01/19 14:56:20;;;;;;;14.65;7.50;;;13.30;99.90;;;;;;5009188;28;20022;-84
2022/01/19 14:58:46;;;;;;;10.65;5.68;;;12.80;99.90;;;;;;5000845;28;20030;-83
2022/01/19 15:01:12;;;;;;;25.98;5.18;;;12.40;99.90;;;;;;5008394;28;20101;-82
2022/01/19 15:03:39;;;;;;;11.05;6.40;;;12.20;99.90;;;;;;5006130;28;20033;-85
2022/01/19 15:06:06;;;;;;;13.48;6.75;;;11.80;99.90;;;;;;4992941;28;20030;-85
2022/01/19 15:08:31;;;;;;;11.05;7.50;;;11.50;99.90;;;;;;5007941;28;20029;-81
2022/01/19 15:10:58;;;;;;;13.00;7.00;;;11.10;99.90;;;;;;5011078;28;20033;-82
2022/01/19 15:13:24;;;;;;;21.17;9.48;;;10.90;99.90;;;;;;4987412;28;20026;-84
2022/01/19 15:15:50;;;;;;;15.80;9.57;;;10.90;99.90;;;;;;4995778;28;20032;-85
2022/01/19 15:18:16;;;;;;;18.15;8.98;;;10.90;99.90;;;;;;5002919;28;20485;-85
2022/01/19 15:20:44;;;;;;;18.33;10.45;;;10.90;99.90;;;;;;5017610;28;20033;-83
2022/01/19 15:23:13;;;;;;;22.00;10.55;;;10.70;99.90;;;;;;4991819;28;20126;-83
2022/01/19 15:25:40;;;;;;;22.55;8.45;;;10.30;99.90;;;;;;5012399;28;20022;-83
2022/01/19 15:28:07;;;;;;;20.30;10.25;;;10.10;99.90;;;;;;4991716;28;20369;-82
2022/01/19 15:30:35;;;;;;;38.40;12.50;;;10.00;99.90;;;;;;5012206;28;20492;-87
2022/01/19 15:33:02;;;;;;;10.75;7.00;;;9.90;99.90;;;;;;5002880;28;20022;-83
2022/01/19 15:35:31;;;;;;;21.63;11.95;;;9.80;99.90;;;;;;5002823;28;20392;-83
2022/01/19 15:37:58;;;;;;;35.88;18.05;;;9.60;99.90;;;;;;5004329;28;20018;-84
2022/01/19 15:40:26;;;;;;;23.90;12.50;;;9.50;99.90;;;;;;5010072;28;20014;-83
2022/01/19 15:42:52;;;;;;;24.20;13.40;;;9.30;99.90;;;;;;4986851;28;20388;-82
2022/01/19 15:45:18;;;;;;;23.30;14.55;;;9.00;99.90;;;;;;5010453;28;20029;-87
2022/01/19 15:47:45;;;;;;;25.38;11.07;;;8.80;99.90;;;;;;4995966;28;20022;-82
2022/01/19 15:50:12;;;;;;;18.38;11.18;;;8.60;99.90;;;;;;5018578;28;20073;-82
2022/01/19 15:52:38;;;;;;;26.63;11.52;;;8.50;99.90;;;;;;5006590;28;20053;-81
2022/01/19 15:55:06;;;;;;;17.15;11.50;;;8.40;99.90;;;;;;4987595;28;20033;-82
2022/01/19 15:57:32;;;;;;;17.80;10.55;;;8.30;99.90;;;;;;5005583;28;20026;-84
2022/01/19 15:59:58;;;;;;;19.85;12.85;;;8.20;99.90;;;;;;5016390;28;20496;-86
2022/01/19 16:02:24;;;;;;;22.77;14.27;;;8.10;99.90;;;;;;5007142;28;20037;-77
2022/01/19 16:04:50;;;;;;;21.67;14.80;;;8.00;99.90;;;;;;4982650;28;20116;-78
2022/01/19 16:07:16;;;;;;;16.13;10.68;;;8.00;99.90;;;;;;5007589;28;20113;-80
2022/01/19 16:09:42;;;;;;;21.42;12.90;;;7.90;99.90;;;;;;4987658;28;20141;-81
2022/01/19 16:12:08;;;;;;;21.65;13.00;;;7.70;99.90;;;;;;4997827;28;20201;-84
2022/01/19 16:14:34;;;;;;;20.98;15.60;;;7.60;99.90;;;;;;5011378;28;20033;-82
2022/01/19 16:17:00;;;;;;;23.85;13.75;;;7.50;99.90;;;;;;5012634;28;20029;-82
2022/01/19 16:19:25;;;;;;;24.73;13.73;;;7.30;99.90;;;;;;5006682;28;20030;-84
2022/01/19 16:21:52;;;;;;;19.38;15.80;;;7.20;99.90;;;;;;5015841;28;20361;-81
2022/01/19 16:27:03;;;;;;;28.15;18.35;;;7.10;99.90;;;;;;5011374;28;20095;-82
2022/01/19 16:29:29;;;;;;;28.10;16.75;;;7.00;99.90;;;;;;4998878;28;20518;-78
2022/01/19 16:31:55;;;;;;;28.00;14.95;;;7.00;99.90;;;;;;5018596;28;20051;-78
2022/01/19 16:34:22;;;;;;;28.55;13.65;;;6.90;99.90;;;;;;5020344;28;20477;-80
2022/01/19 16:36:48;;;;;;;18.10;12.30;;;6.90;99.90;;;;;;5005978;28;20025;-80
2022/01/19 16:39:16;;;;;;;20.30;12.80;;;6.90;99.90;;;;;;5009815;28;20025;-84
2022/01/19 16:41:50;;;;;;;21.30;12.70;;;6.90;99.90;;;;;;5008955;28;20097;-79
2022/01/19 16:44:20;;;;;;;18.95;12.63;;;6.80;99.90;;;;;;4992027;28;20022;-80
2022/01/19 16:46:46;;;;;;;26.58;16.67;;;6.80;99.90;;;;;;5002793;28;20034;-83
2022/01/19 16:49:20;;;;;;;24.00;17.38;;;6.70;99.90;;;;;;5007943;28;20050;-79
2022/01/19 16:51:47;;;;;;;22.90;15.80;;;6.60;99.90;;;;;;4991334;28;20026;-80
2022/01/19 16:54:14;;;;;;;18.45;14.02;;;6.60;99.90;;;;;;5001543;28;20550;-80
2022/01/19 16:56:39;;;;;;;22.35;13.75;;;6.50;99.90;;;;;;5009831;28;20030;-85
2022/01/19 16:59:06;;;;;;;20.08;12.90;;;6.60;99.90;;;;;;4987015;28;20049;-83
2022/01/19 17:01:33;;;;;;;19.00;13.57;;;6.70;99.90;;;;;;5007759;28;20026;-82
2022/01/19 17:03:59;;;;;;;18.75;13.27;;;6.80;99.90;;;;;;5004019;28;20419;-81
2022/01/19 17:06:25;;;;;;;522.97;308.23;;;6.90;99.90;;;;;;5012042;28;20467;-86